sensor_id;sensor_type;location;lat;lon;timestamp;pressure;altitude;pressure_sealevel;temperature;humidity
50105;BME280;47690;39.202;-77.198;2023-06-24T00:02:56;99706.38;;;55.35;13.69
50105;BME280;47690;39.202;-77.198;2023-06-24T00:05:52;99708.03;;;55.15;13.60
50105;BME280;47690;39.202;-77.198;2023-06-24T00:08:59;99695.59;;;55.42;12.85
50105;BME280;47690;39.202;-77.198;2023-06-24T00:12:02;99695.59;;;55.42;13.44
50105;BME280;47690;39.202;-77.198;2023-06-24T00:15:12;99689.88;;;55.60;13.38
50105;BME280;47690;39.202;-77.198;2023-06-24T00:18:14;99684.25;;;55.57;13.52
50105;BME280;47690;39.202;-77.198;2023-06-24T00:21:18;99680.56;;;55.52;13.43
50105;BME280;47690;39.202;-77.198;2023-06-24T00:24:27;99661.63;;;55.29;13.72
50105;BME280;47690;39.202;-77.198;2023-06-24T00:27:31;99661.94;;;55.62;13.46
50105;BME280;47690;39.202;-77.198;2023-06-24T00:30:33;99668.59;;;55.48;13.45
50105;BME280;47690;39.202;-77.198;2023-06-24T00:33:34;99676.53;;;55.16;13.41
50105;BME280;47690;39.202;-77.198;2023-06-24T00:36:38;99690.81;;;54.97;13.48
50105;BME280;47690;39.202;-77.198;2023-06-24T00:39:42;99692.81;;;54.66;14.15
50105;BME280;47690;39.202;-77.198;2023-06-24T00:42:47;99690.06;;;54.87;13.81
50105;BME280;47690;39.202;-77.198;2023-06-24T00:45:50;99695.31;;;55.01;13.19
50105;BME280;47690;39.202;-77.198;2023-06-24T00:48:55;99687.72;;;55.20;13.18
50105;BME280;47690;39.202;-77.198;2023-06-24T00:56:04;99676.09;;;54.93;13.06
50105;BME280;47690;39.202;-77.198;2023-06-24T00:59:11;99672.97;;;55.15;13.46
50105;BME280;47690;39.202;-77.198;2023-06-24T01:02:14;99678.47;;;54.73;13.27
50105;BME280;47690;39.202;-77.198;2023-06-24T01:05:17;99674.88;;;54.60;14.28
50105;BME280;47690;39.202;-77.198;2023-06-24T01:08:20;99678.78;;;54.59;14.14
50105;BME280;47690;39.202;-77.198;2023-06-24T01:11:23;99683.72;;;54.66;14.40
50105;BME280;47690;39.202;-77.198;2023-06-24T01:14:24;99684.88;;;54.65;13.53
50105;BME280;47690;39.202;-77.198;2023-06-24T01:17:46;99679.03;;;54.66;13.88
50105;BME280;47690;39.202;-77.198;2023-06-24T01:24:47;99681.69;;;55.18;13.44
50105;BME280;47690;39.202;-77.198;2023-06-24T01:32:17;99689.44;;;55.24;13.66
50105;BME280;47690;39.202;-77.198;2023-06-24T01:35:25;99695.25;;;54.68;14.03
50105;BME280;47690;39.202;-77.198;2023-06-24T01:38:37;99702.50;;;54.72;13.40
50105;BME280;47690;39.202;-77.198;2023-06-24T01:42:11;99704.88;;;55.04;12.87
50105;BME280;47690;39.202;-77.198;2023-06-24T01:45:16;99713.19;;;54.53;13.90
50105;BME280;47690;39.202;-77.198;2023-06-24T01:48:25;99712.25;;;54.49;13.49
50105;BME280;47690;39.202;-77.198;2023-06-24T01:51:31;99701.97;;;54.58;13.30
50105;BME280;47690;39.202;-77.198;2023-06-24T01:54:35;99707.69;;;54.44;14.17
50105;BME280;47690;39.202;-77.198;2023-06-24T01:57:59;99712.34;;;54.52;13.81
50105;BME280;47690;39.202;-77.198;2023-06-24T02:00:57;99705.00;;;54.35;13.48
50105;BME280;47690;39.202;-77.198;2023-06-24T02:04:19;99706.06;;;54.73;13.66
50105;BME280;47690;39.202;-77.198;2023-06-24T02:07:25;99711.09;;;54.50;14.13
50105;BME280;47690;39.202;-77.198;2023-06-24T02:10:29;99700.91;;;54.41;13.38
50105;BME280;47690;39.202;-77.198;2023-06-24T02:13:35;99705.31;;;54.64;13.94
50105;BME280;47690;39.202;-77.198;2023-06-24T02:16:39;99709.50;;;54.10;13.90
50105;BME280;47690;39.202;-77.198;2023-06-24T02:20:06;99713.91;;;54.62;13.81
50105;BME280;47690;39.202;-77.198;2023-06-24T02:23:06;99711.69;;;54.77;13.25
50105;BME280;47690;39.202;-77.198;2023-06-24T02:26:03;99713.38;;;54.47;13.86
50105;BME280;47690;39.202;-77.198;2023-06-24T02:29:32;99718.66;;;54.83;13.37
50105;BME280;47690;39.202;-77.198;2023-06-24T02:32:39;99712.91;;;54.67;13.94
50105;BME280;47690;39.202;-77.198;2023-06-24T02:35:41;99711.16;;;54.62;13.46
50105;BME280;47690;39.202;-77.198;2023-06-24T02:38:42;99700.63;;;54.64;13.14
50105;BME280;47690;39.202;-77.198;2023-06-24T02:41:44;99700.53;;;54.52;13.46
50105;BME280;47690;39.202;-77.198;2023-06-24T02:44:46;99693.41;;;53.73;14.55
50105;BME280;47690;39.202;-77.198;2023-06-24T02:47:48;99701.97;;;54.28;13.38
50105;BME280;47690;39.202;-77.198;2023-06-24T02:50:51;99702.63;;;54.25;13.82
50105;BME280;47690;39.202;-77.198;2023-06-24T02:53:54;99700.88;;;54.20;14.04
50105;BME280;47690;39.202;-77.198;2023-06-24T02:57:18;99706.00;;;54.30;12.92
50105;BME280;47690;39.202;-77.198;2023-06-24T03:00:38;99703.03;;;54.36;13.82
50105;BME280;47690;39.202;-77.198;2023-06-24T03:03:47;99711.72;;;54.25;13.98
50105;BME280;47690;39.202;-77.198;2023-06-24T03:06:49;99713.81;;;53.72;14.50
50105;BME280;47690;39.202;-77.198;2023-06-24T03:09:56;99721.91;;;53.77;14.39
50105;BME280;47690;39.202;-77.198;2023-06-24T03:12:59;99706.72;;;53.62;13.90
50105;BME280;47690;39.202;-77.198;2023-06-24T03:16:06;99700.56;;;53.65;13.85
50105;BME280;47690;39.202;-77.198;2023-06-24T03:19:41;99705.78;;;54.05;13.44
50105;BME280;47690;39.202;-77.198;2023-06-24T03:22:43;99696.00;;;53.69;14.56
50105;BME280;47690;39.202;-77.198;2023-06-24T03:25:46;99696.69;;;53.57;14.10
50105;BME280;47690;39.202;-77.198;2023-06-24T03:28:47;99698.81;;;53.51;13.97
50105;BME280;47690;39.202;-77.198;2023-06-24T03:31:53;99686.69;;;53.52;14.22
50105;BME280;47690;39.202;-77.198;2023-06-24T03:34:55;99698.03;;;53.33;14.52
50105;BME280;47690;39.202;-77.198;2023-06-24T03:37:58;99697.72;;;53.35;14.17
50105;BME280;47690;39.202;-77.198;2023-06-24T03:41:02;99700.63;;;53.21;14.76
50105;BME280;47690;39.202;-77.198;2023-06-24T03:44:04;99692.66;;;53.55;13.93
50105;BME280;47690;39.202;-77.198;2023-06-24T03:47:31;99697.78;;;54.22;13.74
50105;BME280;47690;39.202;-77.198;2023-06-24T03:50:33;99689.91;;;53.55;13.92
50105;BME280;47690;39.202;-77.198;2023-06-24T03:53:36;99681.94;;;53.79;13.95
50105;BME280;47690;39.202;-77.198;2023-06-24T03:56:38;99681.34;;;53.47;14.59
50105;BME280;47690;39.202;-77.198;2023-06-24T03:59:39;99692.50;;;53.51;14.01
50105;BME280;47690;39.202;-77.198;2023-06-24T04:03:07;99693.63;;;54.06;13.75
50105;BME280;47690;39.202;-77.198;2023-06-24T04:06:09;99698.66;;;53.57;14.13
50105;BME280;47690;39.202;-77.198;2023-06-24T04:09:37;99684.31;;;53.90;14.32
50105;BME280;47690;39.202;-77.198;2023-06-24T04:12:38;99690.72;;;53.55;14.37
50105;BME280;47690;39.202;-77.198;2023-06-24T04:15:39;99690.06;;;53.58;14.63
50105;BME280;47690;39.202;-77.198;2023-06-24T04:18:40;99697.97;;;53.69;14.30
50105;BME280;47690;39.202;-77.198;2023-06-24T04:21:42;99695.78;;;53.92;14.20
50105;BME280;47690;39.202;-77.198;2023-06-24T04:24:43;99696.78;;;54.26;14.11
50105;BME280;47690;39.202;-77.198;2023-06-24T04:27:46;99698.75;;;53.69;14.31
50105;BME280;47690;39.202;-77.198;2023-06-24T04:30:47;99692.63;;;53.63;14.06
50105;BME280;47690;39.202;-77.198;2023-06-24T04:34:18;99693.06;;;54.22;13.25
50105;BME280;47690;39.202;-77.198;2023-06-24T04:37:19;99696.38;;;53.67;13.87
50105;BME280;47690;39.202;-77.198;2023-06-24T04:40:23;99697.16;;;53.68;14.08
50105;BME280;47690;39.202;-77.198;2023-06-24T04:43:26;99698.63;;;53.65;14.44
50105;BME280;47690;39.202;-77.198;2023-06-24T04:46:28;99697.63;;;53.70;14.09
50105;BME280;47690;39.202;-77.198;2023-06-24T04:49:29;99694.09;;;53.70;13.85
50105;BME280;47690;39.202;-77.198;2023-06-24T04:52:30;99695.03;;;53.74;14.34
50105;BME280;47690;39.202;-77.198;2023-06-24T04:55:32;99691.47;;;53.73;13.75
50105;BME280;47690;39.202;-77.198;2023-06-24T04:58:35;99685.66;;;53.75;14.44
50105;BME280;47690;39.202;-77.198;2023-06-24T05:01:36;99683.91;;;53.61;14.26
50105;BME280;47690;39.202;-77.198;2023-06-24T05:04:39;99685.34;;;53.67;13.85
50105;BME280;47690;39.202;-77.198;2023-06-24T05:07:40;99687.91;;;53.73;14.44
50105;BME280;47690;39.202;-77.198;2023-06-24T05:10:42;99688.28;;;53.53;14.63
50105;BME280;47690;39.202;-77.198;2023-06-24T05:13:43;99687.38;;;54.79;13.77
50105;BME280;47690;39.202;-77.198;2023-06-24T05:16:44;99681.06;;;54.27;13.63
50105;BME280;47690;39.202;-77.198;2023-06-24T05:19:46;99687.84;;;54.29;13.82
50105;BME280;47690;39.202;-77.198;2023-06-24T05:22:48;99667.75;;;53.99;14.24
50105;BME280;47690;39.202;-77.198;2023-06-24T05:25:51;99669.84;;;53.54;13.88
50105;BME280;47690;39.202;-77.198;2023-06-24T05:29:11;99667.94;;;53.46;13.85
50105;BME280;47690;39.202;-77.198;2023-06-24T05:32:07;99662.53;;;53.58;14.60
50105;BME280;47690;39.202;-77.198;2023-06-24T05:35:04;99655.25;;;53.62;14.53
50105;BME280;47690;39.202;-77.198;2023-06-24T05:38:05;99646.53;;;53.60;14.14
50105;BME280;47690;39.202;-77.198;2023-06-24T05:41:06;99645.72;;;53.51;13.82
50105;BME280;47690;39.202;-77.198;2023-06-24T05:44:09;99645.22;;;53.58;14.33
50105;BME280;47690;39.202;-77.198;2023-06-24T05:47:13;99643.63;;;53.57;13.77
50105;BME280;47690;39.202;-77.198;2023-06-24T05:50:15;99643.47;;;54.22;14.07
50105;BME280;47690;39.202;-77.198;2023-06-24T05:53:16;99639.03;;;54.09;14.11
50105;BME280;47690;39.202;-77.198;2023-06-24T05:56:21;99635.56;;;54.42;13.15
50105;BME280;47690;39.202;-77.198;2023-06-24T05:59:51;99629.91;;;55.23;13.08
50105;BME280;47690;39.202;-77.198;2023-06-24T06:02:55;99635.19;;;55.41;12.71
50105;BME280;47690;39.202;-77.198;2023-06-24T06:05:57;99635.47;;;55.48;12.29
50105;BME280;47690;39.202;-77.198;2023-06-24T06:08:59;99642.63;;;55.62;12.32
50105;BME280;47690;39.202;-77.198;2023-06-24T06:12:01;99637.97;;;55.41;12.88
50105;BME280;47690;39.202;-77.198;2023-06-24T06:15:02;99635.41;;;55.23;12.44
50105;BME280;47690;39.202;-77.198;2023-06-24T06:18:05;99636.78;;;55.17;12.71
50105;BME280;47690;39.202;-77.198;2023-06-24T06:21:06;99625.25;;;54.60;13.57
50105;BME280;47690;39.202;-77.198;2023-06-24T06:24:08;99616.91;;;54.26;13.73
50105;BME280;47690;39.202;-77.198;2023-06-24T06:27:10;99608.75;;;55.40;13.20
50105;BME280;47690;39.202;-77.198;2023-06-24T06:30:31;99618.56;;;56.12;12.66
50105;BME280;47690;39.202;-77.198;2023-06-24T06:33:52;99620.97;;;56.01;11.84
50105;BME280;47690;39.202;-77.198;2023-06-24T06:36:47;99617.84;;;55.07;12.49
50105;BME280;47690;39.202;-77.198;2023-06-24T06:39:49;99621.16;;;54.66;13.31
50105;BME280;47690;39.202;-77.198;2023-06-24T06:42:50;99618.47;;;54.06;14.06
50105;BME280;47690;39.202;-77.198;2023-06-24T06:45:53;99615.56;;;55.67;12.84
50105;BME280;47690;39.202;-77.198;2023-06-24T06:48:56;99606.72;;;55.99;12.23
50105;BME280;47690;39.202;-77.198;2023-06-24T06:51:58;99614.06;;;54.78;13.16
50105;BME280;47690;39.202;-77.198;2023-06-24T06:55:04;99610.84;;;54.33;13.05
50105;BME280;47690;39.202;-77.198;2023-06-24T06:58:07;99614.66;;;53.89;13.66
50105;BME280;47690;39.202;-77.198;2023-06-24T07:01:09;99609.50;;;53.88;14.17
50105;BME280;47690;39.202;-77.198;2023-06-24T07:04:10;99604.78;;;53.88;14.31
50105;BME280;47690;39.202;-77.198;2023-06-24T07:07:11;99590.97;;;54.70;13.51
50105;BME280;47690;39.202;-77.198;2023-06-24T07:10:13;99589.88;;;55.17;12.32
50105;BME280;47690;39.202;-77.198;2023-06-24T07:13:15;99596.47;;;54.27;13.84
50105;BME280;47690;39.202;-77.198;2023-06-24T07:16:45;99593.16;;;55.10;13.13
50105;BME280;47690;39.202;-77.198;2023-06-24T07:19:46;99578.75;;;56.01;11.81
50105;BME280;47690;39.202;-77.198;2023-06-24T07:22:48;99571.53;;;55.46;12.32
50105;BME280;47690;39.202;-77.198;2023-06-24T07:25:49;99570.06;;;55.03;13.10
50105;BME280;47690;39.202;-77.198;2023-06-24T07:28:51;99562.69;;;54.94;12.60
50105;BME280;47690;39.202;-77.198;2023-06-24T07:31:56;99568.28;;;55.32;13.27
50105;BME280;47690;39.202;-77.198;2023-06-24T07:34:58;99570.97;;;55.07;12.39
50105;BME280;47690;39.202;-77.198;2023-06-24T07:38:01;99565.78;;;54.38;13.56
50105;BME280;47690;39.202;-77.198;2023-06-24T07:41:03;99571.19;;;54.68;12.83
50105;BME280;47690;39.202;-77.198;2023-06-24T07:44:04;99559.13;;;55.52;12.69
50105;BME280;47690;39.202;-77.198;2023-06-24T07:47:05;99558.41;;;54.84;13.27
50105;BME280;47690;39.202;-77.198;2023-06-24T07:50:08;99557.22;;;55.44;12.52
50105;BME280;47690;39.202;-77.198;2023-06-24T07:53:12;99562.03;;;55.10;12.44
50105;BME280;47690;39.202;-77.198;2023-06-24T07:56:13;99563.13;;;54.20;13.14
50105;BME280;47690;39.202;-77.198;2023-06-24T07:59:14;99566.91;;;53.85;13.29
50105;BME280;47690;39.202;-77.198;2023-06-24T08:02:23;99570.41;;;53.94;13.95
50105;BME280;47690;39.202;-77.198;2023-06-24T08:05:44;99567.00;;;53.98;13.81
50105;BME280;47690;39.202;-77.198;2023-06-24T08:09:07;99567.09;;;53.80;13.67
50105;BME280;47690;39.202;-77.198;2023-06-24T08:12:09;99560.31;;;54.29;13.11
50105;BME280;47690;39.202;-77.198;2023-06-24T08:15:13;99552.78;;;54.38;13.27
50105;BME280;47690;39.202;-77.198;2023-06-24T08:18:14;99552.97;;;54.33;13.17
50105;BME280;47690;39.202;-77.198;2023-06-24T08:21:22;99558.19;;;54.13;13.71
50105;BME280;47690;39.202;-77.198;2023-06-24T08:24:24;99557.69;;;55.21;13.14
50105;BME280;47690;39.202;-77.198;2023-06-24T08:27:25;99559.78;;;55.24;12.03
50105;BME280;47690;39.202;-77.198;2023-06-24T08:30:26;99557.38;;;54.55;12.75
50105;BME280;47690;39.202;-77.198;2023-06-24T08:33:54;99558.84;;;55.20;12.69
50105;BME280;47690;39.202;-77.198;2023-06-24T08:37:03;99556.53;;;55.35;12.14
50105;BME280;47690;39.202;-77.198;2023-06-24T08:40:06;99563.81;;;55.27;12.72
50105;BME280;47690;39.202;-77.198;2023-06-24T08:43:11;99566.41;;;54.56;13.06
50105;BME280;47690;39.202;-77.198;2023-06-24T08:46:16;99567.25;;;54.90;12.56
50105;BME280;47690;39.202;-77.198;2023-06-24T08:52:26;99561.63;;;54.44;13.10
50105;BME280;47690;39.202;-77.198;2023-06-24T08:55:32;99566.09;;;54.91;13.27
50105;BME280;47690;39.202;-77.198;2023-06-24T08:59:08;99566.59;;;55.52;12.56
50105;BME280;47690;39.202;-77.198;2023-06-24T09:02:13;99570.44;;;55.13;12.96
50105;BME280;47690;39.202;-77.198;2023-06-24T09:05:14;99578.84;;;55.17;13.12
50105;BME280;47690;39.202;-77.198;2023-06-24T09:08:16;99583.31;;;54.54;12.49
50105;BME280;47690;39.202;-77.198;2023-06-24T09:11:36;99572.44;;;54.58;12.78
50105;BME280;47690;39.202;-77.198;2023-06-24T09:14:50;99586.19;;;53.85;13.87
50105;BME280;47690;39.202;-77.198;2023-06-24T09:17:52;99587.72;;;54.89;13.36
50105;BME280;47690;39.202;-77.198;2023-06-24T09:20:54;99590.69;;;54.63;13.08
50105;BME280;47690;39.202;-77.198;2023-06-24T09:23:58;99586.19;;;54.58;13.04
50105;BME280;47690;39.202;-77.198;2023-06-24T09:27:03;99591.94;;;54.44;12.77
50105;BME280;47690;39.202;-77.198;2023-06-24T09:30:17;99587.31;;;56.49;11.39
50105;BME280;47690;39.202;-77.198;2023-06-24T09:33:46;99581.97;;;54.60;13.36
50105;BME280;47690;39.202;-77.198;2023-06-24T09:36:57;99595.34;;;53.98;13.80
50105;BME280;47690;39.202;-77.198;2023-06-24T09:39:59;99597.47;;;53.92;13.51
50105;BME280;47690;39.202;-77.198;2023-06-24T09:43:05;99592.78;;;53.45;13.67
50105;BME280;47690;39.202;-77.198;2023-06-24T09:46:08;99598.03;;;54.16;13.21
50105;BME280;47690;39.202;-77.198;2023-06-24T09:49:10;99587.75;;;53.56;14.31
50105;BME280;47690;39.202;-77.198;2023-06-24T09:52:14;99597.56;;;54.05;13.69
50105;BME280;47690;39.202;-77.198;2023-06-24T09:55:18;99595.91;;;54.98;13.29
50105;BME280;47690;39.202;-77.198;2023-06-24T09:58:21;99597.53;;;53.84;13.19
50105;BME280;47690;39.202;-77.198;2023-06-24T10:01:23;99595.44;;;53.80;13.85
50105;BME280;47690;39.202;-77.198;2023-06-24T10:04:26;99596.41;;;54.57;12.76
50105;BME280;47690;39.202;-77.198;2023-06-24T10:07:28;99604.19;;;54.13;13.67
50105;BME280;47690;39.202;-77.198;2023-06-24T10:10:31;99607.75;;;54.56;13.70
50105;BME280;47690;39.202;-77.198;2023-06-24T10:13:34;99605.56;;;53.98;13.39
50105;BME280;47690;39.202;-77.198;2023-06-24T10:16:36;99613.31;;;53.96;13.71
50105;BME280;47690;39.202;-77.198;2023-06-24T10:19:39;99606.38;;;55.05;12.65
50105;BME280;47690;39.202;-77.198;2023-06-24T10:22:45;99603.06;;;55.11;13.02
50105;BME280;47690;39.202;-77.198;2023-06-24T10:25:48;99617.44;;;54.41;13.48
50105;BME280;47690;39.202;-77.198;2023-06-24T10:32:13;99616.66;;;53.15;14.38
50105;BME280;47690;39.202;-77.198;2023-06-24T10:35:27;99617.44;;;54.62;12.77
50105;BME280;47690;39.202;-77.198;2023-06-24T10:38:31;99620.84;;;53.38;14.70
50105;BME280;47690;39.202;-77.198;2023-06-24T10:41:33;99624.44;;;53.12;14.66
50105;BME280;47690;39.202;-77.198;2023-06-24T10:44:45;99622.88;;;53.59;14.30
50105;BME280;47690;39.202;-77.198;2023-06-24T10:47:51;99622.91;;;55.05;12.66
50105;BME280;47690;39.202;-77.198;2023-06-24T10:50:59;99633.03;;;55.00;13.22
50105;BME280;47690;39.202;-77.198;2023-06-24T10:54:28;99639.63;;;54.66;13.12
50105;BME280;47690;39.202;-77.198;2023-06-24T10:57:31;99632.44;;;54.73;13.00
50105;BME280;47690;39.202;-77.198;2023-06-24T11:00:32;99642.41;;;55.21;13.03
50105;BME280;47690;39.202;-77.198;2023-06-24T11:03:35;99645.56;;;54.55;12.45
50105;BME280;47690;39.202;-77.198;2023-06-24T11:06:36;99640.41;;;54.24;13.57
50105;BME280;47690;39.202;-77.198;2023-06-24T11:09:41;99644.84;;;54.07;13.77
50105;BME280;47690;39.202;-77.198;2023-06-24T11:12:44;99644.53;;;54.60;12.77
50105;BME280;47690;39.202;-77.198;2023-06-24T11:15:46;99645.41;;;54.30;13.61
50105;BME280;47690;39.202;-77.198;2023-06-24T11:18:48;99642.97;;;54.29;14.14
50105;BME280;47690;39.202;-77.198;2023-06-24T11:21:51;99647.41;;;54.42;13.48
50105;BME280;47690;39.202;-77.198;2023-06-24T11:24:52;99646.94;;;54.40;13.50
50105;BME280;47690;39.202;-77.198;2023-06-24T11:27:54;99651.41;;;54.54;13.21
50105;BME280;47690;39.202;-77.198;2023-06-24T11:30:56;99647.22;;;54.47;13.85
50105;BME280;47690;39.202;-77.198;2023-06-24T11:33:59;99650.97;;;54.22;13.89
50105;BME280;47690;39.202;-77.198;2023-06-24T11:37:12;99649.88;;;54.14;13.14
50105;BME280;47690;39.202;-77.198;2023-06-24T11:40:17;99659.50;;;53.99;13.31
50105;BME280;47690;39.202;-77.198;2023-06-24T11:43:20;99658.84;;;53.93;13.99
50105;BME280;47690;39.202;-77.198;2023-06-24T11:46:30;99661.06;;;54.09;14.02
50105;BME280;47690;39.202;-77.198;2023-06-24T11:49:32;99667.75;;;54.29;13.03
50105;BME280;47690;39.202;-77.198;2023-06-24T11:55:58;99669.34;;;54.81;13.28
50105;BME280;47690;39.202;-77.198;2023-06-24T11:58:54;99680.94;;;54.44;12.99
50105;BME280;47690;39.202;-77.198;2023-06-24T12:01:58;99678.28;;;54.78;13.02
50105;BME280;47690;39.202;-77.198;2023-06-24T12:05:02;99677.88;;;54.67;13.72
50105;BME280;47690;39.202;-77.198;2023-06-24T12:08:06;99682.53;;;54.75;13.04
50105;BME280;47690;39.202;-77.198;2023-06-24T12:11:49;99671.25;;;54.38;13.94
50105;BME280;47690;39.202;-77.198;2023-06-24T12:14:45;99674.59;;;54.23;13.62
50105;BME280;47690;39.202;-77.198;2023-06-24T12:17:39;99678.19;;;54.44;13.94
50105;BME280;47690;39.202;-77.198;2023-06-24T12:20:41;99683.28;;;54.64;13.08
50105;BME280;47690;39.202;-77.198;2023-06-24T12:24:08;99680.78;;;54.92;13.37
50105;BME280;47690;39.202;-77.198;2023-06-24T12:27:35;99686.91;;;54.98;12.76
50105;BME280;47690;39.202;-77.198;2023-06-24T12:30:37;99688.97;;;54.58;13.08
50105;BME280;47690;39.202;-77.198;2023-06-24T12:34:04;99696.34;;;54.97;12.92
50105;BME280;47690;39.202;-77.198;2023-06-24T12:37:15;99695.59;;;54.36;13.60
50105;BME280;47690;39.202;-77.198;2023-06-24T12:40:18;99694.25;;;54.72;13.90
50105;BME280;47690;39.202;-77.198;2023-06-24T12:43:21;99697.75;;;54.82;13.11
50105;BME280;47690;39.202;-77.198;2023-06-24T12:46:49;99683.22;;;54.72;13.13
50105;BME280;47690;39.202;-77.198;2023-06-24T12:49:55;99681.94;;;54.49;14.09
50105;BME280;47690;39.202;-77.198;2023-06-24T12:53:13;99685.56;;;55.38;13.16
50105;BME280;47690;39.202;-77.198;2023-06-24T12:56:20;99692.75;;;54.54;13.42
50105;BME280;47690;39.202;-77.198;2023-06-24T12:59:29;99697.94;;;54.55;14.21
50105;BME280;47690;39.202;-77.198;2023-06-24T13:02:31;99702.44;;;54.60;13.45
50105;BME280;47690;39.202;-77.198;2023-06-24T13:05:36;99709.94;;;55.82;13.20
50105;BME280;47690;39.202;-77.198;2023-06-24T13:08:41;99712.03;;;56.47;12.69
50105;BME280;47690;39.202;-77.198;2023-06-24T13:11:45;99715.34;;;56.53;12.53
50105;BME280;47690;39.202;-77.198;2023-06-24T13:14:52;99712.09;;;55.76;13.22
50105;BME280;47690;39.202;-77.198;2023-06-24T13:17:57;99708.22;;;55.44;13.35
50105;BME280;47690;39.202;-77.198;2023-06-24T13:20:58;99709.94;;;56.07;13.27
50105;BME280;47690;39.202;-77.198;2023-06-24T13:24:03;99703.84;;;55.89;13.31
50105;BME280;47690;39.202;-77.198;2023-06-24T13:27:07;99702.59;;;57.63;11.54
50105;BME280;47690;39.202;-77.198;2023-06-24T13:30:09;99702.75;;;56.68;12.88
50105;BME280;47690;39.202;-77.198;2023-06-24T13:33:11;99705.69;;;56.34;12.83
50105;BME280;47690;39.202;-77.198;2023-06-24T13:36:31;99700.16;;;56.47;12.37
50105;BME280;47690;39.202;-77.198;2023-06-24T13:39:33;99701.78;;;55.98;13.33
50105;BME280;47690;39.202;-77.198;2023-06-24T13:42:55;99704.16;;;55.28;13.31
50105;BME280;47690;39.202;-77.198;2023-06-24T13:45:51;99700.72;;;55.65;13.38
50105;BME280;47690;39.202;-77.198;2023-06-24T13:49:12;99701.41;;;56.62;12.84
50105;BME280;47690;39.202;-77.198;2023-06-24T13:52:28;99700.44;;;56.70;12.41
50105;BME280;47690;39.202;-77.198;2023-06-24T13:55:30;99695.22;;;56.94;12.65
50105;BME280;47690;39.202;-77.198;2023-06-24T13:58:32;99699.69;;;56.32;12.99
50105;BME280;47690;39.202;-77.198;2023-06-24T14:01:33;99696.81;;;56.41;12.65
50105;BME280;47690;39.202;-77.198;2023-06-24T14:04:35;99693.03;;;56.46;12.50
50105;BME280;47690;39.202;-77.198;2023-06-24T14:08:03;99694.66;;;56.22;12.45
50105;BME280;47690;39.202;-77.198;2023-06-24T14:11:04;99697.13;;;55.52;13.32
50105;BME280;47690;39.202;-77.198;2023-06-24T14:14:05;99700.03;;;55.35;13.93
50105;BME280;47690;39.202;-77.198;2023-06-24T14:17:07;99711.84;;;56.15;12.58
50105;BME280;47690;39.202;-77.198;2023-06-24T14:20:10;99711.38;;;55.54;13.63
50105;BME280;47690;39.202;-77.198;2023-06-24T14:23:12;99707.06;;;55.45;13.64
50105;BME280;47690;39.202;-77.198;2023-06-24T14:26:15;99706.44;;;55.26;13.85
50105;BME280;47690;39.202;-77.198;2023-06-24T14:29:17;99709.50;;;55.80;13.39
50105;BME280;47690;39.202;-77.198;2023-06-24T14:32:20;99707.22;;;55.48;13.50
50105;BME280;47690;39.202;-77.198;2023-06-24T14:35:31;99699.78;;;55.49;13.84
50105;BME280;47690;39.202;-77.198;2023-06-24T14:39:17;99697.75;;;55.95;13.08
50105;BME280;47690;39.202;-77.198;2023-06-24T14:42:32;99694.66;;;55.97;13.51
50105;BME280;47690;39.202;-77.198;2023-06-24T14:45:38;99697.41;;;56.22;12.85
50105;BME280;47690;39.202;-77.198;2023-06-24T14:49:24;99690.97;;;56.43;12.82
50105;BME280;47690;39.202;-77.198;2023-06-24T14:52:49;99683.00;;;56.29;12.82
50105;BME280;47690;39.202;-77.198;2023-06-24T14:56:06;99680.75;;;55.93;13.75
50105;BME280;47690;39.202;-77.198;2023-06-24T14:59:28;99691.19;;;56.00;13.45
50105;BME280;47690;39.202;-77.198;2023-06-24T15:02:41;99684.72;;;55.71;13.00
50105;BME280;47690;39.202;-77.198;2023-06-24T15:05:45;99675.53;;;55.79;13.28
50105;BME280;47690;39.202;-77.198;2023-06-24T15:08:49;99679.75;;;55.52;13.77
50105;BME280;47690;39.202;-77.198;2023-06-24T15:11:51;99671.72;;;56.34;13.17
50105;BME280;47690;39.202;-77.198;2023-06-24T15:14:56;99668.00;;;56.55;12.74
50105;BME280;47690;39.202;-77.198;2023-06-24T15:18:03;99658.63;;;56.31;13.27
50105;BME280;47690;39.202;-77.198;2023-06-24T15:21:06;99648.94;;;56.37;12.47
50105;BME280;47690;39.202;-77.198;2023-06-24T15:25:00;99646.97;;;56.50;12.33
50105;BME280;47690;39.202;-77.198;2023-06-24T15:28:01;99634.22;;;56.61;12.71
50105;BME280;47690;39.202;-77.198;2023-06-24T15:31:03;99622.69;;;56.06;13.06
50105;BME280;47690;39.202;-77.198;2023-06-24T15:34:05;99628.59;;;56.04;13.19
50105;BME280;47690;39.202;-77.198;2023-06-24T15:37:07;99624.47;;;57.37;12.35
50105;BME280;47690;39.202;-77.198;2023-06-24T15:40:08;99625.78;;;56.42;12.41
50105;BME280;47690;39.202;-77.198;2023-06-24T15:43:10;99625.88;;;57.02;12.53
50105;BME280;47690;39.202;-77.198;2023-06-24T15:46:12;99628.28;;;57.04;11.94
50105;BME280;47690;39.202;-77.198;2023-06-24T15:49:14;99622.31;;;57.02;12.53
50105;BME280;47690;39.202;-77.198;2023-06-24T15:52:16;99627.41;;;57.00;12.12
50105;BME280;47690;39.202;-77.198;2023-06-24T15:55:18;99631.78;;;57.01;12.00
50105;BME280;47690;39.202;-77.198;2023-06-24T15:58:20;99635.72;;;57.00;12.66
50105;BME280;47690;39.202;-77.198;2023-06-24T16:01:21;99631.13;;;57.68;12.30
50105;BME280;47690;39.202;-77.198;2023-06-24T16:04:23;99638.16;;;56.60;12.78
50105;BME280;47690;39.202;-77.198;2023-06-24T16:07:26;99642.06;;;56.59;12.36
50105;BME280;47690;39.202;-77.198;2023-06-24T16:10:27;99634.44;;;57.42;11.83
50105;BME280;47690;39.202;-77.198;2023-06-24T16:13:30;99632.47;;;57.58;11.86
50105;BME280;47690;39.202;-77.198;2023-06-24T16:16:33;99638.69;;;57.23;11.97
50105;BME280;47690;39.202;-77.198;2023-06-24T16:19:35;99645.03;;;56.95;12.46
50105;BME280;47690;39.202;-77.198;2023-06-24T16:22:37;99654.22;;;56.42;12.65
50105;BME280;47690;39.202;-77.198;2023-06-24T16:25:40;99655.31;;;56.13;12.53